sensor_id;sensor_type;location;lat;lon;timestamp;temperature;humidity
36416;DHT22;22447;44.530;18.620;2023-02-27T00:01:28;2.00;99.90
36416;DHT22;22447;44.530;18.620;2023-02-27T00:03:56;1.90;99.90
36416;DHT22;22447;44.530;18.620;2023-02-27T00:06:22;2.00;99.90
36416;DHT22;22447;44.530;18.620;2023-02-27T00:08:48;2.00;99.90
36416;DHT22;22447;44.530;18.620;2023-02-27T00:11:14;2.00;99.90
36416;DHT22;22447;44.530;18.620;2023-02-27T00:13:40;1.90;99.90
36416;DHT22;22447;44.530;18.620;2023-02-27T00:16:06;1.90;99.90
36416;DHT22;22447;44.530;18.620;2023-02-27T00:18:33;1.90;99.90
36416;DHT22;22447;44.530;18.620;2023-02-27T00:20:59;2.00;99.90
36416;DHT22;22447;44.530;18.620;2023-02-27T00:23:24;2.10;99.90
36416;DHT22;22447;44.530;18.620;2023-02-27T00:25:50;2.00;99.90
36416;DHT22;22447;44.530;18.620;2023-02-27T00:28:17;2.10;99.90
36416;DHT22;22447;44.530;18.620;2023-02-27T00:30:44;2.10;99.90
36416;DHT22;22447;44.530;18.620;2023-02-27T00:33:09;2.10;99.90
36416;DHT22;22447;44.530;18.620;2023-02-27T00:35:35;2.10;99.90
36416;DHT22;22447;44.530;18.620;2023-02-27T00:38:01;2.00;99.90
36416;DHT22;22447;44.530;18.620;2023-02-27T00:40:29;2.10;99.90
36416;DHT22;22447;44.530;18.620;2023-02-27T00:42:55;2.10;99.90
36416;DHT22;22447;44.530;18.620;2023-02-27T00:45:21;2.00;99.90
36416;DHT22;22447;44.530;18.620;2023-02-27T00:47:47;2.10;99.90
36416;DHT22;22447;44.530;18.620;2023-02-27T00:50:14;2.10;99.90
36416;DHT22;22447;44.530;18.620;2023-02-27T00:52:40;2.10;99.90
36416;DHT22;22447;44.530;18.620;2023-02-27T00:55:07;2.10;99.90
36416;DHT22;22447;44.530;18.620;2023-02-27T00:57:34;2.20;99.90
36416;DHT22;22447;44.530;18.620;2023-02-27T01:00:00;2.30;99.90
36416;DHT22;22447;44.530;18.620;2023-02-27T01:02:26;2.30;99.90
36416;DHT22;22447;44.530;18.620;2023-02-27T01:04:54;2.30;99.90
36416;DHT22;22447;44.530;18.620;2023-02-27T01:07:23;2.20;99.90
36416;DHT22;22447;44.530;18.620;2023-02-27T01:09:49;2.20;99.90
36416;DHT22;22447;44.530;18.620;2023-02-27T01:12:15;2.30;99.90
36416;DHT22;22447;44.530;18.620;2023-02-27T01:14:43;2.20;99.90
36416;DHT22;22447;44.530;18.620;2023-02-27T01:17:09;2.20;99.90
36416;DHT22;22447;44.530;18.620;2023-02-27T01:19:37;2.20;99.90
36416;DHT22;22447;44.530;18.620;2023-02-27T01:22:04;2.20;99.90
36416;DHT22;22447;44.530;18.620;2023-02-27T01:24:30;2.30;99.90
36416;DHT22;22447;44.530;18.620;2023-02-27T01:26:56;2.20;99.90
36416;DHT22;22447;44.530;18.620;2023-02-27T01:29:22;2.20;99.90
36416;DHT22;22447;44.530;18.620;2023-02-27T01:31:48;2.10;99.90
36416;DHT22;22447;44.530;18.620;2023-02-27T01:34:15;2.00;99.90
36416;DHT22;22447;44.530;18.620;2023-02-27T01:36:41;2.00;99.90
36416;DHT22;22447;44.530;18.620;2023-02-27T01:39:07;2.00;99.90
36416;DHT22;22447;44.530;18.620;2023-02-27T01:41:33;1.90;99.90
36416;DHT22;22447;44.530;18.620;2023-02-27T01:44:02;2.00;99.90
36416;DHT22;22447;44.530;18.620;2023-02-27T01:46:30;1.90;99.90
36416;DHT22;22447;44.530;18.620;2023-02-27T01:49:17;1.80;99.90
36416;DHT22;22447;44.530;18.620;2023-02-27T01:51:48;1.80;99.90
36416;DHT22;22447;44.530;18.620;2023-02-27T01:54:19;1.80;99.90
36416;DHT22;22447;44.530;18.620;2023-02-27T01:56:46;1.80;99.90
36416;DHT22;22447;44.530;18.620;2023-02-27T01:59:12;1.90;99.90
36416;DHT22;22447;44.530;18.620;2023-02-27T02:01:39;1.90;99.90
36416;DHT22;22447;44.530;18.620;2023-02-27T02:04:20;1.90;99.90
36416;DHT22;22447;44.530;18.620;2023-02-27T02:06:53;1.90;99.90
36416;DHT22;22447;44.530;18.620;2023-02-27T02:09:20;1.80;99.90
36416;DHT22;22447;44.530;18.620;2023-02-27T02:11:47;1.80;99.90
36416;DHT22;22447;44.530;18.620;2023-02-27T02:14:16;1.90;99.90
36416;DHT22;22447;44.530;18.620;2023-02-27T02:19:53;1.90;99.90
36416;DHT22;22447;44.530;18.620;2023-02-27T02:45:32;2.10;99.90
36416;DHT22;22447;44.530;18.620;2023-02-27T02:48:07;2.00;99.90
36416;DHT22;22447;44.530;18.620;2023-02-27T02:50:43;1.90;99.90
36416;DHT22;22447;44.530;18.620;2023-02-27T02:56:04;2.10;99.90
36416;DHT22;22447;44.530;18.620;2023-02-27T02:58:50;2.00;99.90
36416;DHT22;22447;44.530;18.620;2023-02-27T03:01:22;1.90;99.90
36416;DHT22;22447;44.530;18.620;2023-02-27T03:03:58;2.00;99.90
36416;DHT22;22447;44.530;18.620;2023-02-27T03:06:32;2.10;99.90
36416;DHT22;22447;44.530;18.620;2023-02-27T03:09:06;2.10;99.90
36416;DHT22;22447;44.530;18.620;2023-02-27T03:11:36;2.10;99.90
36416;DHT22;22447;44.530;18.620;2023-02-27T03:14:12;2.10;99.90
36416;DHT22;22447;44.530;18.620;2023-02-27T03:16:46;2.10;99.90
36416;DHT22;22447;44.530;18.620;2023-02-27T03:19:21;2.10;99.90
36416;DHT22;22447;44.530;18.620;2023-02-27T03:24:27;2.00;99.90
36416;DHT22;22447;44.530;18.620;2023-02-27T03:26:56;2.00;99.90
36416;DHT22;22447;44.530;18.620;2023-02-27T03:34:54;1.80;99.90
36416;DHT22;22447;44.530;18.620;2023-02-27T03:37:37;1.90;99.90
36416;DHT22;22447;44.530;18.620;2023-02-27T03:45:55;2.00;99.90
36416;DHT22;22447;44.530;18.620;2023-02-27T03:48:24;2.00;99.90
36416;DHT22;22447;44.530;18.620;2023-02-27T03:50:50;2.00;99.90
36416;DHT22;22447;44.530;18.620;2023-02-27T03:53:50;2.00;99.90
36416;DHT22;22447;44.530;18.620;2023-02-27T03:56:21;2.10;99.90
36416;DHT22;22447;44.530;18.620;2023-02-27T03:58:49;2.00;99.90
36416;DHT22;22447;44.530;18.620;2023-02-27T04:01:16;2.00;99.90
36416;DHT22;22447;44.530;18.620;2023-02-27T04:03:49;2.10;99.90
36416;DHT22;22447;44.530;18.620;2023-02-27T04:06:34;2.20;99.90
36416;DHT22;22447;44.530;18.620;2023-02-27T04:20:43;1.80;99.90
36416;DHT22;22447;44.530;18.620;2023-02-27T04:23:19;1.80;99.90
36416;DHT22;22447;44.530;18.620;2023-02-27T04:26:19;1.90;99.90
36416;DHT22;22447;44.530;18.620;2023-02-27T04:39:36;1.90;99.90
36416;DHT22;22447;44.530;18.620;2023-02-27T04:42:08;1.90;99.90
36416;DHT22;22447;44.530;18.620;2023-02-27T04:44:36;2.00;99.90
36416;DHT22;22447;44.530;18.620;2023-02-27T04:47:05;1.80;99.90
36416;DHT22;22447;44.530;18.620;2023-02-27T04:49:54;1.70;99.90
36416;DHT22;22447;44.530;18.620;2023-02-27T04:52:30;1.70;99.90
36416;DHT22;22447;44.530;18.620;2023-02-27T04:55:05;1.80;99.90
36416;DHT22;22447;44.530;18.620;2023-02-27T04:57:39;1.80;99.90
36416;DHT22;22447;44.530;18.620;2023-02-27T05:00:10;1.70;99.90
36416;DHT22;22447;44.530;18.620;2023-02-27T05:02:46;1.70;99.90
36416;DHT22;22447;44.530;18.620;2023-02-27T05:05:24;1.70;99.90
36416;DHT22;22447;44.530;18.620;2023-02-27T05:08:09;1.80;99.90
36416;DHT22;22447;44.530;18.620;2023-02-27T05:10:48;1.70;99.90
36416;DHT22;22447;44.530;18.620;2023-02-27T05:13:29;1.70;99.90
36416;DHT22;22447;44.530;18.620;2023-02-27T05:16:04;1.70;99.90
36416;DHT22;22447;44.530;18.620;2023-02-27T05:18:32;1.80;99.90
36416;DHT22;22447;44.530;18.620;2023-02-27T05:26:39;1.80;99.90
36416;DHT22;22447;44.530;18.620;2023-02-27T05:35:03;1.70;99.90
36416;DHT22;22447;44.530;18.620;2023-02-27T05:37:34;1.60;99.90
36416;DHT22;22447;44.530;18.620;2023-02-27T05:40:02;1.70;99.90
36416;DHT22;22447;44.530;18.620;2023-02-27T05:42:40;1.60;99.90
36416;DHT22;22447;44.530;18.620;2023-02-27T05:45:19;1.60;99.90
36416;DHT22;22447;44.530;18.620;2023-02-27T05:47:54;1.80;99.90
36416;DHT22;22447;44.530;18.620;2023-02-27T05:50:27;1.90;99.90
36416;DHT22;22447;44.530;18.620;2023-02-27T05:52:55;1.90;99.90
36416;DHT22;22447;44.530;18.620;2023-02-27T05:55:31;2.00;99.90
36416;DHT22;22447;44.530;18.620;2023-02-27T05:58:19;1.90;99.90
36416;DHT22;22447;44.530;18.620;2023-02-27T06:00:59;1.90;99.90
36416;DHT22;22447;44.530;18.620;2023-02-27T06:03:31;2.00;99.90
36416;DHT22;22447;44.530;18.620;2023-02-27T06:05:59;2.00;99.90
36416;DHT22;22447;44.530;18.620;2023-02-27T06:08:26;1.90;99.90
36416;DHT22;22447;44.530;18.620;2023-02-27T06:10:52;1.90;99.90
36416;DHT22;22447;44.530;18.620;2023-02-27T06:13:19;2.00;99.90
36416;DHT22;22447;44.530;18.620;2023-02-27T06:15:47;2.00;99.90
36416;DHT22;22447;44.530;18.620;2023-02-27T06:18:14;1.90;99.90
36416;DHT22;22447;44.530;18.620;2023-02-27T06:20:42;1.90;99.90
36416;DHT22;22447;44.530;18.620;2023-02-27T06:23:08;1.80;99.90
36416;DHT22;22447;44.530;18.620;2023-02-27T06:25:35;2.00;99.90
36416;DHT22;22447;44.530;18.620;2023-02-27T06:28:01;1.90;99.90
36416;DHT22;22447;44.530;18.620;2023-02-27T06:30:27;2.00;99.90
36416;DHT22;22447;44.530;18.620;2023-02-27T06:32:53;2.10;99.90
36416;DHT22;22447;44.530;18.620;2023-02-27T06:35:19;2.20;99.90
36416;DHT22;22447;44.530;18.620;2023-02-27T06:37:45;2.20;99.90
36416;DHT22;22447;44.530;18.620;2023-02-27T06:40:12;2.10;99.90
36416;DHT22;22447;44.530;18.620;2023-02-27T06:42:42;2.00;99.90
36416;DHT22;22447;44.530;18.620;2023-02-27T06:45:11;2.20;99.90
36416;DHT22;22447;44.530;18.620;2023-02-27T06:47:38;2.20;99.90
36416;DHT22;22447;44.530;18.620;2023-02-27T06:50:05;2.40;99.90
36416;DHT22;22447;44.530;18.620;2023-02-27T06:52:32;2.40;99.90
36416;DHT22;22447;44.530;18.620;2023-02-27T06:54:58;2.50;99.90
36416;DHT22;22447;44.530;18.620;2023-02-27T06:57:25;2.60;99.90
36416;DHT22;22447;44.530;18.620;2023-02-27T06:59:51;2.60;99.90
36416;DHT22;22447;44.530;18.620;2023-02-27T07:02:17;2.80;99.90
36416;DHT22;22447;44.530;18.620;2023-02-27T07:04:43;2.80;99.90
36416;DHT22;22447;44.530;18.620;2023-02-27T07:07:09;2.80;99.90
36416;DHT22;22447;44.530;18.620;2023-02-27T07:09:36;2.90;99.90
36416;DHT22;22447;44.530;18.620;2023-02-27T07:12:03;2.90;99.90
36416;DHT22;22447;44.530;18.620;2023-02-27T07:14:29;2.80;99.90
36416;DHT22;22447;44.530;18.620;2023-02-27T07:16:55;2.60;99.90
36416;DHT22;22447;44.530;18.620;2023-02-27T07:19:22;2.60;99.90
36416;DHT22;22447;44.530;18.620;2023-02-27T07:21:49;2.70;99.90
36416;DHT22;22447;44.530;18.620;2023-02-27T07:24:15;2.60;99.90
36416;DHT22;22447;44.530;18.620;2023-02-27T07:26:41;2.70;99.90
36416;DHT22;22447;44.530;18.620;2023-02-27T07:29:08;2.60;99.90
36416;DHT22;22447;44.530;18.620;2023-02-27T07:31:34;2.60;99.90
36416;DHT22;22447;44.530;18.620;2023-02-27T07:34:01;2.60;99.90
36416;DHT22;22447;44.530;18.620;2023-02-27T07:36:27;2.70;99.90
36416;DHT22;22447;44.530;18.620;2023-02-27T07:38:55;2.60;99.90
36416;DHT22;22447;44.530;18.620;2023-02-27T07:41:23;2.70;99.90
36416;DHT22;22447;44.530;18.620;2023-02-27T07:43:49;2.80;99.90
36416;DHT22;22447;44.530;18.620;2023-02-27T07:46:18;2.70;99.90
36416;DHT22;22447;44.530;18.620;2023-02-27T07:48:49;2.60;99.90
36416;DHT22;22447;44.530;18.620;2023-02-27T07:51:15;2.70;99.90
36416;DHT22;22447;44.530;18.620;2023-02-27T07:53:41;2.60;99.90
36416;DHT22;22447;44.530;18.620;2023-02-27T07:56:07;2.60;99.90
36416;DHT22;22447;44.530;18.620;2023-02-27T07:58:33;2.70;99.90
36416;DHT22;22447;44.530;18.620;2023-02-27T08:00:59;2.90;99.90
36416;DHT22;22447;44.530;18.620;2023-02-27T08:03:25;3.00;99.90
36416;DHT22;22447;44.530;18.620;2023-02-27T08:05:51;3.00;99.90
36416;DHT22;22447;44.530;18.620;2023-02-27T08:08:17;3.20;99.90
36416;DHT22;22447;44.530;18.620;2023-02-27T08:10:43;3.20;99.90
36416;DHT22;22447;44.530;18.620;2023-02-27T08:13:09;3.10;99.90
36416;DHT22;22447;44.530;18.620;2023-02-27T08:15:35;3.20;99.90
36416;DHT22;22447;44.530;18.620;2023-02-27T08:18:01;3.10;99.90
36416;DHT22;22447;44.530;18.620;2023-02-27T08:20:27;3.20;99.90
36416;DHT22;22447;44.530;18.620;2023-02-27T08:22:53;3.30;99.90
36416;DHT22;22447;44.530;18.620;2023-02-27T08:25:19;3.20;99.90
36416;DHT22;22447;44.530;18.620;2023-02-27T08:27:46;3.20;99.90
36416;DHT22;22447;44.530;18.620;2023-02-27T08:30:12;3.20;99.90
36416;DHT22;22447;44.530;18.620;2023-02-27T08:32:38;3.20;99.90
36416;DHT22;22447;44.530;18.620;2023-02-27T08:35:06;3.30;99.90
36416;DHT22;22447;44.530;18.620;2023-02-27T08:37:32;3.40;99.90
36416;DHT22;22447;44.530;18.620;2023-02-27T08:39:58;3.40;99.90
36416;DHT22;22447;44.530;18.620;2023-02-27T08:42:24;3.40;99.90
36416;DHT22;22447;44.530;18.620;2023-02-27T08:44:50;3.50;99.90
36416;DHT22;22447;44.530;18.620;2023-02-27T08:47:18;3.60;99.90
36416;DHT22;22447;44.530;18.620;2023-02-27T08:49:43;3.70;99.90
36416;DHT22;22447;44.530;18.620;2023-02-27T08:52:09;3.90;99.90
36416;DHT22;22447;44.530;18.620;2023-02-27T08:54:35;4.00;99.90
36416;DHT22;22447;44.530;18.620;2023-02-27T08:57:02;4.20;99.90
36416;DHT22;22447;44.530;18.620;2023-02-27T08:59:29;4.30;99.90
36416;DHT22;22447;44.530;18.620;2023-02-27T09:01:55;4.40;99.90
36416;DHT22;22447;44.530;18.620;2023-02-27T09:04:22;4.30;99.90
36416;DHT22;22447;44.530;18.620;2023-02-27T09:06:48;4.30;99.90
36416;DHT22;22447;44.530;18.620;2023-02-27T09:09:14;4.20;99.90
36416;DHT22;22447;44.530;18.620;2023-02-27T09:11:39;4.40;99.90
36416;DHT22;22447;44.530;18.620;2023-02-27T09:14:06;4.50;99.90
36416;DHT22;22447;44.530;18.620;2023-02-27T09:16:32;4.60;99.90
36416;DHT22;22447;44.530;18.620;2023-02-27T09:18:58;4.90;99.90
36416;DHT22;22447;44.530;18.620;2023-02-27T09:21:24;5.10;99.90
36416;DHT22;22447;44.530;18.620;2023-02-27T09:23:51;5.00;99.90
36416;DHT22;22447;44.530;18.620;2023-02-27T09:26:17;5.10;99.90
36416;DHT22;22447;44.530;18.620;2023-02-27T09:28:44;5.30;99.90
36416;DHT22;22447;44.530;18.620;2023-02-27T09:31:10;5.60;99.90
36416;DHT22;22447;44.530;18.620;2023-02-27T09:33:37;5.90;99.90
36416;DHT22;22447;44.530;18.620;2023-02-27T09:36:05;6.30;99.90
36416;DHT22;22447;44.530;18.620;2023-02-27T09:38:33;6.60;99.90
36416;DHT22;22447;44.530;18.620;2023-02-27T09:40:59;6.80;99.90
36416;DHT22;22447;44.530;18.620;2023-02-27T09:43:47;7.10;99.90
36416;DHT22;22447;44.530;18.620;2023-02-27T09:46:18;7.10;99.90
36416;DHT22;22447;44.530;18.620;2023-02-27T09:48:57;7.40;99.90
36416;DHT22;22447;44.530;18.620;2023-02-27T09:51:24;7.60;99.90
36416;DHT22;22447;44.530;18.620;2023-02-27T09:53:54;7.70;99.90
36416;DHT22;22447;44.530;18.620;2023-02-27T09:59:50;7.40;99.90
36416;DHT22;22447;44.530;18.620;2023-02-27T10:01:56;7.20;99.90
36416;DHT22;22447;44.530;18.620;2023-02-27T10:04:33;6.60;99.90
36416;DHT22;22447;44.530;18.620;2023-02-27T10:12:53;6.60;99.90
36416;DHT22;22447;44.530;18.620;2023-02-27T10:15:35;6.80;99.90
36416;DHT22;22447;44.530;18.620;2023-02-27T10:18:19;6.70;99.90
36416;DHT22;22447;44.530;18.620;2023-02-27T10:21:09;6.80;99.90
36416;DHT22;22447;44.530;18.620;2023-02-27T10:26:41;5.70;99.90
36416;DHT22;22447;44.530;18.620;2023-02-27T10:29:32;6.10;99.90
36416;DHT22;22447;44.530;18.620;2023-02-27T10:34:34;6.40;99.90
36416;DHT22;22447;44.530;18.620;2023-02-27T10:37:04;6.40;99.90
36416;DHT22;22447;44.530;18.620;2023-02-27T10:39:44;6.30;99.90
36416;DHT22;22447;44.530;18.620;2023-02-27T10:42:11;6.20;99.90
36416;DHT22;22447;44.530;18.620;2023-02-27T10:44:38;6.00;99.90
36416;DHT22;22447;44.530;18.620;2023-02-27T10:47:04;6.10;99.90
36416;DHT22;22447;44.530;18.620;2023-02-27T10:49:31;5.50;99.90
36416;DHT22;22447;44.530;18.620;2023-02-27T10:52:13;5.50;99.90
36416;DHT22;22447;44.530;18.620;2023-02-27T10:54:42;6.00;99.90
36416;DHT22;22447;44.530;18.620;2023-02-27T10:57:29;6.40;99.90
36416;DHT22;22447;44.530;18.620;2023-02-27T11:00:05;6.70;99.90
36416;DHT22;22447;44.530;18.620;2023-02-27T11:02:48;6.90;99.90
36416;DHT22;22447;44.530;18.620;2023-02-27T11:05:25;7.10;99.90
36416;DHT22;22447;44.530;18.620;2023-02-27T11:07:54;7.20;99.90
36416;DHT22;22447;44.530;18.620;2023-02-27T11:10:24;7.20;99.90
36416;DHT22;22447;44.530;18.620;2023-02-27T11:13:05;7.10;99.90
36416;DHT22;22447;44.530;18.620;2023-02-27T11:15:36;6.90;99.90
36416;DHT22;22447;44.530;18.620;2023-02-27T11:18:29;6.80;99.90
36416;DHT22;22447;44.530;18.620;2023-02-27T11:21:17;6.50;99.90
36416;DHT22;22447;44.530;18.620;2023-02-27T11:24:05;6.70;99.90
36416;DHT22;22447;44.530;18.620;2023-02-27T11:26:41;6.50;99.90
36416;DHT22;22447;44.530;18.620;2023-02-27T11:29:19;6.20;99.90
36416;DHT22;22447;44.530;18.620;2023-02-27T11:32:02;6.40;99.90
36416;DHT22;22447;44.530;18.620;2023-02-27T11:34:32;5.90;99.90
36416;DHT22;22447;44.530;18.620;2023-02-27T11:37:06;5.80;99.90
36416;DHT22;22447;44.530;18.620;2023-02-27T11:39:38;5.60;99.90
36416;DHT22;22447;44.530;18.620;2023-02-27T11:44:50;6.00;99.90
36416;DHT22;22447;44.530;18.620;2023-02-27T11:47:31;5.90;99.90
36416;DHT22;22447;44.530;18.620;2023-02-27T11:50:28;6.10;99.90
36416;DHT22;22447;44.530;18.620;2023-02-27T11:53:31;6.20;99.90
36416;DHT22;22447;44.530;18.620;2023-02-27T11:56:01;6.40;99.90
36416;DHT22;22447;44.530;18.620;2023-02-27T11:58:34;6.00;99.90
36416;DHT22;22447;44.530;18.620;2023-02-27T12:01:12;5.90;99.90
36416;DHT22;22447;44.530;18.620;2023-02-27T12:04:03;6.00;99.90
36416;DHT22;22447;44.530;18.620;2023-02-27T12:12:07;6.00;99.90
36416;DHT22;22447;44.530;18.620;2023-02-27T12:14:47;5.90;99.90
36416;DHT22;22447;44.530;18.620;2023-02-27T12:17:28;5.60;99.90
36416;DHT22;22447;44.530;18.620;2023-02-27T12:22:51;5.60;99.90
36416;DHT22;22447;44.530;18.620;2023-02-27T12:30:35;5.30;99.90
36416;DHT22;22447;44.530;18.620;2023-02-27T12:33:35;5.30;99.90
36416;DHT22;22447;44.530;18.620;2023-02-27T12:36:03;5.40;99.90
36416;DHT22;22447;44.530;18.620;2023-02-27T12:38:30;5.30;99.90
36416;DHT22;22447;44.530;18.620;2023-02-27T12:44:10;5.30;99.90
36416;DHT22;22447;44.530;18.620;2023-02-27T12:54:58;5.40;99.90
36416;DHT22;22447;44.530;18.620;2023-02-27T12:57:43;5.40;99.90
36416;DHT22;22447;44.530;18.620;2023-02-27T13:00:18;5.30;99.90
36416;DHT22;22447;44.530;18.620;2023-02-27T13:02:49;5.10;99.90
36416;DHT22;22447;44.530;18.620;2023-02-27T13:08:23;4.70;99.90
36416;DHT22;22447;44.530;18.620;2023-02-27T13:11:29;4.70;99.90
36416;DHT22;22447;44.530;18.620;2023-02-27T13:14:01;4.60;99.90
36416;DHT22;22447;44.530;18.620;2023-02-27T13:16:39;4.60;99.90
36416;DHT22;22447;44.530;18.620;2023-02-27T13:19:53;4.60;99.90
36416;DHT22;22447;44.530;18.620;2023-02-27T13:22:38;4.50;99.90
36416;DHT22;22447;44.530;18.620;2023-02-27T13:25:12;4.50;99.90
36416;DHT22;22447;44.530;18.620;2023-02-27T13:28:00;4.50;99.90
36416;DHT22;22447;44.530;18.620;2023-02-27T13:30:42;4.50;99.90
36416;DHT22;22447;44.530;18.620;2023-02-27T13:33:41;4.40;99.90
36416;DHT22;22447;44.530;18.620;2023-02-27T13:36:20;4.30;99.90
36416;DHT22;22447;44.530;18.620;2023-02-27T13:38:52;4.30;99.90
36416;DHT22;22447;44.530;18.620;2023-02-27T13:46:46;4.40;99.90
36416;DHT22;22447;44.530;18.620;2023-02-27T13:49:23;4.30;99.90
36416;DHT22;22447;44.530;18.620;2023-02-27T13:51:54;4.40;99.90
36416;DHT22;22447;44.530;18.620;2023-02-27T13:54:27;4.40;99.90
36416;DHT22;22447;44.530;18.620;2023-02-27T13:59:40;4.20;99.90
36416;DHT22;22447;44.530;18.620;2023-02-27T14:04:45;4.10;99.90
36416;DHT22;22447;44.530;18.620;2023-02-27T14:07:14;4.10;99.90
36416;DHT22;22447;44.530;18.620;2023-02-27T14:10:07;4.10;99.90
36416;DHT22;22447;44.530;18.620;2023-02-27T14:12:40;4.10;99.90
36416;DHT22;22447;44.530;18.620;2023-02-27T14:15:48;4.10;99.90
36416;DHT22;22447;44.530;18.620;2023-02-27T14:18:54;4.00;99.90
36416;DHT22;22447;44.530;18.620;2023-02-27T14:21:50;4.00;99.90
36416;DHT22;22447;44.530;18.620;2023-02-27T14:24:18;4.00;99.90
36416;DHT22;22447;44.530;18.620;2023-02-27T14:26:45;4.00;99.90
36416;DHT22;22447;44.530;18.620;2023-02-27T14:29:23;3.90;99.90
36416;DHT22;22447;44.530;18.620;2023-02-27T14:31:51;4.00;99.90
36416;DHT22;22447;44.530;18.620;2023-02-27T14:34:20;3.90;99.90
36416;DHT22;22447;44.530;18.620;2023-02-27T14:36:53;4.00;99.90
36416;DHT22;22447;44.530;18.620;2023-02-27T14:39:32;3.90;99.90
36416;DHT22;22447;44.530;18.620;2023-02-27T14:44:40;3.80;99.90
36416;DHT22;22447;44.530;18.620;2023-02-27T14:47:18;3.80;99.90
36416;DHT22;22447;44.530;18.620;2023-02-27T14:49:46;3.90;99.90
36416;DHT22;22447;44.530;18.620;2023-02-27T14:52:26;3.80;99.90
36416;DHT22;22447;44.530;18.620;2023-02-27T15:00:37;3.80;99.90
36416;DHT22;22447;44.530;18.620;2023-02-27T15:03:22;3.80;99.90
36416;DHT22;22447;44.530;18.620;2023-02-27T15:05:52;3.70;99.90
36416;DHT22;22447;44.530;18.620;2023-02-27T15:08:41;3.70;99.90
36416;DHT22;22447;44.530;18.620;2023-02-27T15:11:08;3.70;99.90
36416;DHT22;22447;44.530;18.620;2023-02-27T15:13:41;3.70;99.90
36416;DHT22;22447;44.530;18.620;2023-02-27T15:16:37;3.60;99.90
36416;DHT22;22447;44.530;18.620;2023-02-27T15:21:44;3.60;99.90
36416;DHT22;22447;44.530;18.620;2023-02-27T15:24:37;3.60;99.90
36416;DHT22;22447;44.530;18.620;2023-02-27T15:27:09;3.50;99.90
36416;DHT22;22447;44.530;18.620;2023-02-27T15:29:41;3.60;99.90
36416;DHT22;22447;44.530;18.620;2023-02-27T15:32:48;3.50;99.90
36416;DHT22;22447;44.530;18.620;2023-02-27T15:35:22;3.50;99.90
36416;DHT22;22447;44.530;18.620;2023-02-27T15:37:54;3.50;99.90
36416;DHT22;22447;44.530;18.620;2023-02-27T15:40:25;3.20;99.90
36416;DHT22;22447;44.530;18.620;2023-02-27T15:42:53;3.20;99.90
36416;DHT22;22447;44.530;18.620;2023-02-27T15:45:25;3.20;99.90
36416;DHT22;22447;44.530;18.620;2023-02-27T15:47:52;3.20;99.90
36416;DHT22;22447;44.530;18.620;2023-02-27T15:50:52;3.20;99.90
36416;DHT22;22447;44.530;18.620;2023-02-27T15:53:25;3.30;99.90
36416;DHT22;22447;44.530;18.620;2023-02-27T15:55:54;3.40;99.90
36416;DHT22;22447;44.530;18.620;2023-02-27T15:58:24;3.30;99.90
36416;DHT22;22447;44.530;18.620;2023-02-27T16:00:58;3.30;99.90
36416;DHT22;22447;44.530;18.620;2023-02-27T16:03:27;3.30;99.90
36416;DHT22;22447;44.530;18.620;2023-02-27T16:05:58;3.30;99.90
36416;DHT22;22447;44.530;18.620;2023-02-27T16:08:24;3.30;99.90
36416;DHT22;22447;44.530;18.620;2023-02-27T16:10:52;3.20;99.90
36416;DHT22;22447;44.530;18.620;2023-02-27T16:15:58;3.00;99.90
36416;DHT22;22447;44.530;18.620;2023-02-27T16:18:38;3.00;99.90
36416;DHT22;22447;44.530;18.620;2023-02-27T16:21:13;2.90;99.90
36416;DHT22;22447;44.530;18.620;2023-02-27T16:23:40;2.90;99.90
36416;DHT22;22447;44.530;18.620;2023-02-27T16:26:24;3.00;99.90
36416;DHT22;22447;44.530;18.620;2023-02-27T16:28:56;2.90;99.90
36416;DHT22;22447;44.530;18.620;2023-02-27T16:31:36;2.90;99.90
36416;DHT22;22447;44.530;18.620;2023-02-27T16:34:15;2.80;99.90
36416;DHT22;22447;44.530;18.620;2023-02-27T16:37:00;2.60;99.90
36416;DHT22;22447;44.530;18.620;2023-02-27T16:39:27;2.60;99.90
36416;DHT22;22447;44.530;18.620;2023-02-27T16:41:54;2.80;99.90
36416;DHT22;22447;44.530;18.620;2023-02-27T16:44:21;2.80;99.90
36416;DHT22;22447;44.530;18.620;2023-02-27T16:46:50;2.70;99.90
36416;DHT22;22447;44.530;18.620;2023-02-27T16:49:26;2.80;99.90
36416;DHT22;22447;44.530;18.620;2023-02-27T16:51:53;2.90;99.90
36416;DHT22;22447;44.530;18.620;2023-02-27T16:54:19;2.80;99.90
36416;DHT22;22447;44.530;18.620;2023-02-27T16:56:47;2.70;99.90
36416;DHT22;22447;44.530;18.620;2023-02-27T17:01:55;2.60;99.90
36416;DHT22;22447;44.530;18.620;2023-02-27T17:04:34;2.50;99.90
36416;DHT22;22447;44.530;18.620;2023-02-27T17:07:01;2.50;99.90
36416;DHT22;22447;44.530;18.620;2023-02-27T17:09:28;2.60;99.90
36416;DHT22;22447;44.530;18.620;2023-02-27T17:11:55;2.80;99.90
36416;DHT22;22447;44.530;18.620;2023-02-27T17:14:22;2.90;99.90
36416;DHT22;22447;44.530;18.620;2023-02-27T17:16:49;2.90;99.90
36416;DHT22;22447;44.530;18.620;2023-02-27T17:19:15;2.90;99.90
36416;DHT22;22447;44.530;18.620;2023-02-27T17:21:41;2.90;99.90
36416;DHT22;22447;44.530;18.620;2023-02-27T17:24:08;2.70;99.90
36416;DHT22;22447;44.530;18.620;2023-02-27T17:26:34;2.70;99.90
36416;DHT22;22447;44.530;18.620;2023-02-27T17:29:01;2.80;99.90
36416;DHT22;22447;44.530;18.620;2023-02-27T17:31:28;2.90;99.90
36416;DHT22;22447;44.530;18.620;2023-02-27T17:33:54;2.70;99.90
36416;DHT22;22447;44.530;18.620;2023-02-27T17:36:20;2.60;99.90
36416;DHT22;22447;44.530;18.620;2023-02-27T17:38:47;2.60;99.90
36416;DHT22;22447;44.530;18.620;2023-02-27T17:41:17;2.80;99.90
36416;DHT22;22447;44.530;18.620;2023-02-27T17:43:49;2.80;99.90
36416;DHT22;22447;44.530;18.620;2023-02-27T17:46:16;2.60;99.90
36416;DHT22;22447;44.530;18.620;2023-02-27T17:48:42;2.70;99.90
36416;DHT22;22447;44.530;18.620;2023-02-27T17:51:10;2.60;99.90
36416;DHT22;22447;44.530;18.620;2023-02-27T17:53:37;2.70;99.90
36416;DHT22;22447;44.530;18.620;2023-02-27T17:56:04;2.70;99.90
36416;DHT22;22447;44.530;18.620;2023-02-27T17:58:30;2.70;99.90
36416;DHT22;22447;44.530;18.620;2023-02-27T18:01:07;2.70;99.90
36416;DHT22;22447;44.530;18.620;2023-02-27T18:03:34;2.70;99.90
36416;DHT22;22447;44.530;18.620;2023-02-27T18:06:00;2.60;99.90
36416;DHT22;22447;44.530;18.620;2023-02-27T18:08:27;2.50;99.90
36416;DHT22;22447;44.530;18.620;2023-02-27T18:10:54;2.50;99.90
36416;DHT22;22447;44.530;18.620;2023-02-27T18:13:20;2.40;99.90
36416;DHT22;22447;44.530;18.620;2023-02-27T18:15:46;2.40;99.90
36416;DHT22;22447;44.530;18.620;2023-02-27T18:18:13;2.40;99.90
36416;DHT22;22447;44.530;18.620;2023-02-27T18:20:39;2.50;99.90
36416;DHT22;22447;44.530;18.620;2023-02-27T18:23:06;2.50;99.90
36416;DHT22;22447;44.530;18.620;2023-02-27T18:25:35;2.40;99.90
36416;DHT22;22447;44.530;18.620;2023-02-27T18:28:03;2.40;99.90